createdAt,value
2022-08-19T00:05:05.675Z,19.03
2022-08-19T00:07:33.342Z,18.96
2022-08-19T00:10:00.994Z,18.97
2022-08-19T00:12:28.661Z,18.93
2022-08-19T00:14:56.214Z,18.82
2022-08-19T00:17:23.774Z,18.77
2022-08-19T00:19:51.125Z,18.75
2022-08-19T00:26:30.796Z,18.64
2022-08-19T00:28:58.355Z,18.62
2022-08-19T00:35:44.780Z,18.46
2022-08-19T00:38:12.244Z,18.40
2022-08-19T00:40:39.588Z,18.33
2022-08-19T00:47:19.155Z,18.20
2022-08-19T00:49:53.979Z,18.12
2022-08-19T00:56:35.490Z,17.98
2022-08-19T00:59:03.972Z,18.01
2022-08-19T01:01:31.467Z,17.90
2022-08-19T01:04:00.730Z,17.85
2022-08-19T01:06:28.896Z,17.80
2022-08-19T01:08:56.746Z,17.74
2022-08-19T01:11:27.089Z,17.74
2022-08-19T01:13:56.799Z,17.69
2022-08-19T01:16:29.687Z,17.76
2022-08-19T01:23:23.173Z,17.77
2022-08-19T01:25:56.055Z,17.61
2022-08-19T01:32:59.788Z,17.62
2022-08-19T01:35:30.007Z,17.65
2022-08-19T01:42:13.254Z,17.73
2022-08-19T01:44:44.506Z,17.74
2022-08-19T01:47:12.060Z,17.72
2022-08-19T01:49:39.618Z,17.74
2022-08-19T01:52:07.891Z,17.76
2022-08-19T01:59:01.895Z,17.76
2022-08-19T02:01:33.282Z,17.78
2022-08-19T02:08:13.117Z,17.89
2022-08-19T02:10:44.256Z,17.96
2022-08-19T02:13:15.136Z,17.85
2022-08-19T02:15:43.883Z,17.83
2022-08-19T02:18:12.153Z,17.70
2022-08-19T02:20:44.018Z,17.72
2022-08-19T02:23:16.159Z,17.76
2022-08-19T02:25:45.686Z,17.76
2022-08-19T02:28:17.893Z,17.77
2022-08-19T02:30:47.254Z,17.82
2022-08-19T02:33:14.813Z,17.80
2022-08-19T02:35:47.283Z,17.81
2022-08-19T02:38:28.361Z,17.89
2022-08-19T02:41:03.697Z,17.92
2022-08-19T02:43:34.626Z,17.95
2022-08-19T02:46:03.323Z,18.08
2022-08-19T02:48:31.495Z,18.03
2022-08-19T02:50:58.848Z,18.04
2022-08-19T02:53:28.661Z,18.03
2022-08-19T03:00:16.398Z,17.98
2022-08-19T03:02:43.955Z,18.03
2022-08-19T03:09:38.693Z,18.07
2022-08-19T03:12:06.866Z,17.98
2022-08-19T03:18:41.207Z,17.89
2022-08-19T03:25:44.429Z,17.94
2022-08-19T03:28:14.242Z,17.87
2022-08-19T03:35:01.485Z,17.99
2022-08-19T03:41:45.337Z,18.09
2022-08-19T03:44:17.055Z,18.05
2022-08-19T03:51:04.658Z,18.09
2022-08-19T03:53:34.064Z,18.12
2022-08-19T04:00:19.459Z,18.64
2022-08-19T04:07:17.075Z,18.61
2022-08-19T04:09:44.713Z,18.59
2022-08-19T04:16:37.072Z,18.92
2022-08-19T04:19:07.727Z,18.95
2022-08-19T04:26:01.408Z,19.55
2022-08-19T04:28:38.278Z,19.74
2022-08-19T04:31:07.273Z,20.28
2022-08-19T04:33:35.852Z,20.61
2022-08-19T04:36:05.458Z,20.80
2022-08-19T04:42:49.972Z,20.93
2022-08-19T04:45:27.228Z,21.03
2022-08-19T04:52:22.181Z,20.98
2022-08-19T04:54:58.007Z,21.11
2022-08-19T05:01:52.625Z,21.00
2022-08-19T05:08:44.468Z,20.97
2022-08-19T05:11:26.584Z,20.97
2022-08-19T05:18:31.633Z,20.97
2022-08-19T05:21:17.728Z,21.10
2022-08-19T05:32:42.478Z,21.17
2022-08-19T05:39:36.707Z,21.37
2022-08-19T05:42:10.181Z,21.39
2022-08-19T05:48:57.836Z,21.58
2022-08-19T05:51:29.206Z,21.59
2022-08-19T05:58:28.241Z,21.58
2022-08-19T06:00:56.377Z,21.59
2022-08-19T06:03:24.240Z,21.61
2022-08-19T06:05:52.288Z,21.70
2022-08-19T06:08:20.484Z,21.84
2022-08-19T06:15:19.195Z,22.08
2022-08-19T06:17:46.799Z,22.21
2022-08-19T06:24:27.859Z,22.44
2022-08-19T06:27:00.827Z,22.64
2022-08-19T06:29:31.293Z,22.79
2022-08-19T06:32:00.975Z,23.11
2022-08-19T06:34:30.799Z,23.39
2022-08-19T06:37:03.370Z,23.61
2022-08-19T06:39:36.418Z,23.71
2022-08-19T06:42:07.598Z,23.76
2022-08-19T06:44:42.406Z,23.71
2022-08-19T06:47:23.835Z,23.61
2022-08-19T06:54:19.529Z,23.69
2022-08-19T07:01:09.087Z,23.85
2022-08-19T07:03:39.690Z,23.68
2022-08-19T07:10:34.089Z,23.20
2022-08-19T07:13:02.258Z,23.14
2022-08-19T07:19:48.176Z,23.00
2022-08-19T07:22:17.332Z,22.84
2022-08-19T07:24:51.080Z,22.83
2022-08-19T07:36:23.194Z,22.91
2022-08-19T07:38:55.770Z,22.99
2022-08-19T07:45:43.729Z,22.52
2022-08-19T07:48:11.701Z,22.45
2022-08-19T07:50:39.856Z,22.20
2022-08-19T07:53:07.531Z,22.14
2022-08-19T07:55:41.183Z,22.05
2022-08-19T07:58:10.741Z,21.86
2022-08-19T08:00:38.916Z,21.56
2022-08-19T08:07:49.706Z,21.18
2022-08-19T08:10:20.588Z,20.97
2022-08-19T08:17:10.983Z,20.51
2022-08-19T08:19:39.240Z,20.50
2022-08-19T08:22:07.513Z,20.49
2022-08-19T08:24:37.327Z,20.39
2022-08-19T08:31:29.688Z,20.56
2022-08-19T08:33:57.347Z,20.57
2022-08-19T08:36:25.930Z,20.51
2022-08-19T08:41:46.020Z,20.79
2022-08-19T08:44:22.026Z,20.67
2022-08-19T08:47:02.337Z,21.00
2022-08-19T08:49:34.005Z,21.55
2022-08-19T08:56:17.022Z,22.00
2022-08-19T09:03:11.257Z,22.37
2022-08-19T09:05:48.974Z,22.19
2022-08-19T09:13:00.673Z,22.00
2022-08-19T09:15:39.088Z,22.08
2022-08-19T09:22:27.219Z,22.24
2022-08-19T09:24:55.316Z,22.40
2022-08-19T09:27:42.094Z,23.07
2022-08-19T09:30:18.682Z,23.49
2022-08-19T09:32:46.769Z,23.45
2022-08-19T09:35:15.689Z,23.69
2022-08-19T09:37:51.943Z,24.12
2022-08-19T09:40:26.280Z,24.94
2022-08-19T09:42:54.410Z,24.85
2022-08-19T09:45:23.271Z,24.09
2022-08-19T09:47:54.823Z,24.10
2022-08-19T09:50:24.440Z,23.85
2022-08-19T09:52:57.048Z,23.98
2022-08-19T09:55:31.639Z,23.90
2022-08-19T09:58:04.029Z,24.04
2022-08-19T10:00:32.815Z,23.69
2022-08-19T10:03:01.008Z,23.60
2022-08-19T10:05:48.563Z,23.65
2022-08-19T10:08:24.266Z,23.40
2022-08-19T10:10:56.140Z,23.29
2022-08-19T10:13:28.289Z,23.33
2022-08-19T10:15:58.618Z,23.41
2022-08-19T10:18:26.797Z,23.49
2022-08-19T10:21:02.944Z,23.44
2022-08-19T10:23:33.709Z,23.38
2022-08-19T10:26:04.716Z,23.21
2022-08-19T10:28:32.079Z,23.32
2022-08-19T10:31:00.552Z,23.34
2022-08-19T10:33:53.048Z,23.22
2022-08-19T10:36:21.884Z,23.42
2022-08-19T10:41:59.086Z,24.38
2022-08-19T10:48:38.445Z,27.03
2022-08-19T10:51:25.152Z,27.08
2022-08-19T10:53:53.746Z,27.01
2022-08-19T10:56:39.728Z,26.65
2022-08-19T10:59:07.598Z,26.59
2022-08-19T11:01:37.247Z,26.57
2022-08-19T11:04:06.077Z,26.52
2022-08-19T11:06:34.056Z,26.73
2022-08-19T11:09:01.417Z,26.94
2022-08-19T11:11:29.886Z,27.06
2022-08-19T11:13:57.552Z,27.80
2022-08-19T11:16:27.768Z,28.34
2022-08-19T11:18:59.736Z,29.37
2022-08-19T11:25:20.862Z,29.74
2022-08-19T11:27:52.552Z,28.77
2022-08-19T11:30:20.284Z,27.63
2022-08-19T11:32:49.625Z,26.75
2022-08-19T11:39:38.214Z,26.74
2022-08-19T11:42:28.548Z,26.90
2022-08-19T11:49:14.012Z,29.38
2022-08-19T11:56:01.604Z,30.29
2022-08-19T11:58:30.401Z,30.16
2022-08-19T12:05:23.580Z,31.82
2022-08-19T12:07:51.133Z,31.86
2022-08-19T12:10:19.475Z,31.57
2022-08-19T12:17:08.920Z,30.53
2022-08-19T12:19:38.717Z,29.83
2022-08-19T12:26:19.205Z,32.90
2022-08-19T12:28:47.380Z,34.17
2022-08-19T12:35:45.570Z,33.43
2022-08-19T12:38:14.159Z,32.95
2022-08-19T12:40:41.926Z,32.82
2022-08-19T12:43:09.780Z,34.04
2022-08-19T12:45:37.491Z,35.22
2022-08-19T12:48:33.150Z,35.88
2022-08-19T12:50:55.711Z,36.77
2022-08-19T12:53:23.152Z,37.36
2022-08-19T12:55:57.899Z,36.88
2022-08-19T12:58:27.388Z,36.89
2022-08-19T13:00:55.186Z,36.65
2022-08-19T13:03:28.761Z,35.96
2022-08-19T13:05:56.625Z,33.52
2022-08-19T13:08:24.591Z,35.78
2022-08-19T13:10:52.151Z,35.86
2022-08-19T13:13:19.944Z,33.95
2022-08-19T13:15:48.703Z,34.43
2022-08-19T13:22:41.372Z,31.45
2022-08-19T13:25:09.852Z,30.84
2022-08-19T13:36:34.908Z,32.45
2022-08-19T13:39:02.774Z,33.81
2022-08-19T13:41:30.229Z,35.32
2022-08-19T13:43:58.408Z,36.12
2022-08-19T13:46:25.960Z,36.86
2022-08-19T13:48:53.417Z,37.35
2022-08-19T13:51:21.072Z,37.16
2022-08-19T13:58:06.586Z,34.51
2022-08-19T14:00:41.351Z,35.39
2022-08-19T14:07:20.671Z,33.19
2022-08-19T14:09:48.025Z,32.20
2022-08-19T14:12:28.831Z,32.09
2022-08-19T14:14:56.760Z,31.92
2022-08-19T14:17:24.418Z,31.73
2022-08-19T14:19:57.607Z,31.54
2022-08-19T14:22:25.268Z,30.90
2022-08-19T14:24:52.727Z,30.54
2022-08-19T14:27:20.180Z,30.31
2022-08-19T14:29:47.637Z,30.26
2022-08-19T14:32:16.210Z,30.21
2022-08-19T14:39:10.641Z,29.89
2022-08-19T14:41:41.262Z,30.14
2022-08-19T14:48:33.710Z,30.10
2022-08-19T14:51:01.395Z,29.90
2022-08-19T14:57:48.579Z,30.14
2022-08-19T15:00:16.607Z,30.01
2022-08-19T15:02:47.236Z,30.19
2022-08-19T15:05:15.921Z,29.73
2022-08-19T15:07:44.400Z,29.75
2022-08-19T15:10:14.005Z,29.46
2022-08-19T15:12:43.628Z,29.40
2022-08-19T15:19:23.788Z,28.47
2022-08-19T15:21:51.245Z,28.55
2022-08-19T15:28:44.228Z,27.95
2022-08-19T15:31:25.177Z,27.72
2022-08-19T15:38:22.791Z,27.02
2022-08-19T15:45:15.766Z,26.54
2022-08-19T15:47:43.738Z,26.48
2022-08-19T15:54:35.688Z,26.23
2022-08-19T15:57:21.675Z,26.17
2022-08-19T16:04:26.331Z,25.82
2022-08-19T16:07:00.646Z,25.73
2022-08-19T16:13:52.604Z,25.67
2022-08-19T16:16:27.780Z,25.65
2022-08-19T16:19:10.266Z,25.71
2022-08-19T16:21:41.809Z,25.58
2022-08-19T16:24:13.353Z,25.49
2022-08-19T16:26:42.856Z,25.39
2022-08-19T16:29:12.237Z,25.46
2022-08-19T16:31:43.749Z,25.39
2022-08-19T16:34:12.094Z,25.31
2022-08-19T16:36:43.740Z,25.21
2022-08-19T16:39:15.166Z,25.16
2022-08-19T16:41:44.894Z,25.05
2022-08-19T16:44:14.812Z,24.93
2022-08-19T16:46:42.543Z,24.86
2022-08-19T16:49:11.159Z,24.83
2022-08-19T16:51:39.954Z,24.81
2022-08-19T16:54:07.806Z,24.78
2022-08-19T17:01:04.138Z,24.56
2022-08-19T17:03:35.774Z,24.59
2022-08-19T17:10:28.592Z,24.24
2022-08-19T17:12:56.218Z,24.10
2022-08-19T17:19:54.883Z,23.26
2022-08-19T17:22:22.510Z,23.08
2022-08-19T17:24:50.186Z,22.89
2022-08-19T17:30:16.759Z,22.63
2022-08-19T17:32:43.559Z,22.47
2022-08-19T17:35:10.621Z,22.28
2022-08-19T17:37:38.031Z,22.26
2022-08-19T17:40:07.668Z,22.17
2022-08-19T17:42:36.500Z,22.42
2022-08-19T17:45:04.586Z,22.23
2022-08-19T17:47:31.590Z,22.08
2022-08-19T17:49:58.523Z,21.92
2022-08-19T17:52:25.681Z,21.88
2022-08-19T17:54:52.427Z,21.75
2022-08-19T17:57:19.098Z,21.71
2022-08-19T17:59:46.166Z,21.69
2022-08-19T18:02:13.279Z,21.69
2022-08-19T18:04:40.059Z,21.64
2022-08-19T18:07:06.875Z,21.58
2022-08-19T18:09:41.743Z,21.35
2022-08-19T18:12:15.660Z,21.42
2022-08-19T18:14:42.553Z,21.33
2022-08-19T18:17:12.410Z,21.35
2022-08-19T18:19:43.577Z,21.40
2022-08-19T18:22:29.086Z,21.39
2022-08-19T18:24:57.443Z,21.33
2022-08-19T18:27:27.701Z,21.29
2022-08-19T18:29:59.420Z,21.32
2022-08-19T18:32:29.526Z,21.43
2022-08-19T18:34:56.243Z,21.37
2022-08-19T18:37:25.355Z,21.29
2022-08-19T18:40:10.825Z,21.21
2022-08-19T18:43:01.200Z,21.21
2022-08-19T18:45:46.919Z,21.16
2022-08-19T18:48:32.106Z,21.10
2022-08-19T18:51:00.602Z,21.18
2022-08-19T18:53:29.363Z,21.17
2022-08-19T18:55:56.622Z,21.18
2022-08-19T18:58:34.727Z,21.11
2022-08-19T19:01:20.897Z,21.08
2022-08-19T19:03:53.424Z,21.08
2022-08-19T19:06:22.459Z,21.07
2022-08-19T19:08:50.838Z,21.17
2022-08-19T19:11:23.393Z,21.18
2022-08-19T19:13:50.061Z,21.13
2022-08-19T19:16:22.385Z,21.11
2022-08-19T19:18:52.366Z,21.10
2022-08-19T19:21:20.944Z,21.11
2022-08-19T19:23:47.645Z,21.08
2022-08-19T19:26:14.540Z,21.07
2022-08-19T19:28:48.714Z,21.05
2022-08-19T19:31:22.777Z,20.97
2022-08-19T19:33:50.097Z,21.00
2022-08-19T19:36:16.774Z,20.95
2022-08-19T19:38:48.375Z,20.88
2022-08-19T19:41:17.976Z,20.80
2022-08-19T19:43:44.708Z,20.76
2022-08-19T19:46:11.425Z,20.70
2022-08-19T19:48:38.270Z,20.69
2022-08-19T19:51:05.707Z,20.66
2022-08-19T19:53:33.802Z,20.82
2022-08-19T19:56:02.171Z,21.00
2022-08-19T19:58:31.226Z,20.75
2022-08-19T20:00:59.327Z,20.70
2022-08-19T20:03:27.234Z,20.60
2022-08-19T20:05:54.876Z,20.50
2022-08-19T20:08:39.917Z,20.54
2022-08-19T20:11:07.311Z,20.50
2022-08-19T20:13:35.285Z,20.49
2022-08-19T20:16:04.727Z,20.48
2022-08-19T20:18:31.473Z,20.52
2022-08-19T20:20:59.258Z,20.48
2022-08-19T20:23:26.495Z,20.45
2022-08-19T20:25:54.352Z,20.46
2022-08-19T20:28:22.871Z,20.39
2022-08-19T20:30:50.123Z,20.45
2022-08-19T20:33:17.014Z,20.37
2022-08-19T20:35:44.348Z,20.30
2022-08-19T20:38:11.215Z,20.31
2022-08-19T20:40:38.790Z,20.31
2022-08-19T20:43:14.230Z,20.33
2022-08-19T20:45:43.279Z,20.27
2022-08-19T20:48:12.251Z,20.20
2022-08-19T20:50:39.462Z,20.14
2022-08-19T20:53:14.774Z,20.13
2022-08-19T20:55:44.470Z,20.17
2022-08-19T20:58:12.682Z,20.16
2022-08-19T21:00:40.520Z,20.14
2022-08-19T21:03:07.347Z,20.16
2022-08-19T21:05:34.113Z,20.14
2022-08-19T21:08:00.906Z,20.13
2022-08-19T21:10:27.579Z,20.09
2022-08-19T21:12:55.423Z,20.05
2022-08-19T21:15:24.579Z,20.03
2022-08-19T21:17:51.941Z,19.97
2022-08-19T21:20:18.895Z,20.02
2022-08-19T21:22:45.684Z,20.01
2022-08-19T21:25:12.370Z,19.98
2022-08-19T21:27:39.030Z,19.91
2022-08-19T21:30:06.461Z,19.86
2022-08-19T21:32:33.260Z,19.83
2022-08-19T21:34:59.966Z,19.77
2022-08-19T21:37:26.787Z,19.74
2022-08-19T21:39:54.815Z,19.67
2022-08-19T21:42:23.197Z,19.59
2022-08-19T21:44:49.953Z,19.52
2022-08-19T21:47:16.655Z,19.48
2022-08-19T21:49:43.401Z,19.43
2022-08-19T21:52:10.051Z,19.41
2022-08-19T21:54:37.996Z,19.42
2022-08-19T21:57:10.666Z,19.38
2022-08-19T21:59:41.264Z,19.34
2022-08-19T22:02:22.357Z,19.31
2022-08-19T22:04:50.698Z,19.33
2022-08-19T22:07:17.487Z,19.35
2022-08-19T22:09:46.304Z,19.34
2022-08-19T22:12:47.316Z,19.37
2022-08-19T22:15:21.266Z,19.36
2022-08-19T22:17:48.217Z,19.38
2022-08-19T22:20:17.581Z,19.36
2022-08-19T22:23:00.514Z,19.34
2022-08-19T22:25:32.007Z,19.33
2022-08-19T22:28:02.928Z,19.40
2022-08-19T22:30:33.077Z,19.29
2022-08-19T22:33:02.450Z,19.29
2022-08-19T22:35:33.364Z,19.30
2022-08-19T22:38:01.147Z,19.31
2022-08-19T22:40:30.448Z,19.25
2022-08-19T22:43:03.424Z,19.20
2022-08-19T22:45:31.643Z,19.20
2022-08-19T22:47:58.327Z,19.21
2022-08-19T22:50:25.983Z,19.16
2022-08-19T22:52:57.950Z,19.09
2022-08-19T22:55:26.635Z,19.05
2022-08-19T22:57:53.730Z,19.06
2022-08-19T23:00:22.592Z,19.06
2022-08-19T23:02:51.670Z,19.00
2022-08-19T23:05:22.213Z,18.98
2022-08-19T23:07:52.288Z,18.93
2022-08-19T23:10:26.594Z,18.90
2022-08-19T23:12:56.853Z,18.91
2022-08-19T23:15:27.489Z,18.97
2022-08-19T23:17:56.428Z,19.02
2022-08-19T23:20:27.025Z,19.07
2022-08-19T23:22:54.964Z,19.19
2022-08-19T23:25:24.899Z,19.20
2022-08-19T23:28:10.391Z,19.25
2022-08-19T23:30:43.310Z,19.34
2022-08-19T23:33:24.266Z,19.24
2022-08-19T23:36:04.864Z,19.19
2022-08-19T23:38:32.674Z,19.14
2022-08-19T23:41:02.421Z,19.11
2022-08-19T23:43:31.281Z,19.06
2022-08-19T23:46:02.773Z,18.98
2022-08-19T23:48:37.879Z,18.99
2022-08-19T23:51:07.111Z,18.94
2022-08-19T23:53:34.863Z,18.88
2022-08-19T23:56:01.558Z,18.86
2022-08-19T23:58:30.041Z,18.80
